createdAt,value
2019-02-22T00:00:41.586Z,6.03
2019-02-22T00:03:16.587Z,5.87
2019-02-22T00:05:50.070Z,6.67
2019-02-22T00:08:24.081Z,6.27
2019-02-22T00:10:58.593Z,6.30
2019-02-22T00:13:32.606Z,5.43
2019-02-22T00:16:05.588Z,6.40
2019-02-22T00:18:39.609Z,7.10
2019-02-22T00:21:13.612Z,6.27
2019-02-22T00:23:48.616Z,7.30
2019-02-22T00:26:22.613Z,7.57
2019-02-22T00:28:56.616Z,6.47
2019-02-22T00:31:32.222Z,6.40
2019-02-22T00:34:08.620Z,6.60
2019-02-22T00:36:44.202Z,6.80
2019-02-22T00:39:19.174Z,6.80
2019-02-22T00:41:53.614Z,6.10
2019-02-22T00:44:26.618Z,6.87
2019-02-22T00:46:59.611Z,6.37
2019-02-22T00:49:32.616Z,7.37
2019-02-22T00:52:05.520Z,5.87
2019-02-22T00:54:38.630Z,7.20
2019-02-22T00:57:12.619Z,6.90
2019-02-22T00:59:46.319Z,6.57
2019-02-22T01:02:20.619Z,6.43
2019-02-22T01:04:53.613Z,6.47
2019-02-22T01:07:27.615Z,7.13
2019-02-22T01:13:42.621Z,6.67
2019-02-22T01:19:57.101Z,6.37
2019-02-22T01:22:30.613Z,5.90
2019-02-22T01:25:05.120Z,6.87
2019-02-22T01:27:39.125Z,9.03
2019-02-22T01:30:12.613Z,8.10
2019-02-22T01:32:46.621Z,8.67
2019-02-22T01:35:20.621Z,8.20
2019-02-22T01:37:53.614Z,7.73
2019-02-22T01:40:27.619Z,8.83
2019-02-22T01:43:00.613Z,8.70
2019-02-22T01:45:34.625Z,8.23
2019-02-22T01:48:08.131Z,7.63
2019-02-22T01:50:41.616Z,8.30
2019-02-22T01:53:14.624Z,7.80
2019-02-22T01:55:48.616Z,7.70
2019-02-22T01:58:21.630Z,6.63
2019-02-22T02:00:55.617Z,7.23
2019-02-22T02:03:28.622Z,7.70
2019-02-22T02:06:02.617Z,7.13
2019-02-22T02:08:35.618Z,7.20
2019-02-22T02:11:10.135Z,7.20
2019-02-22T02:13:45.618Z,7.03
2019-02-22T02:16:20.391Z,6.43
2019-02-22T02:18:54.633Z,6.67
2019-02-22T02:21:28.642Z,7.30
2019-02-22T02:24:03.034Z,7.83
2019-02-22T02:26:38.620Z,7.97
2019-02-22T02:29:12.283Z,8.97
2019-02-22T02:31:45.617Z,8.30
2019-02-22T02:34:20.095Z,8.10
2019-02-22T02:36:54.619Z,8.57
2019-02-22T02:39:28.619Z,8.90
2019-02-22T02:42:02.125Z,8.50
2019-02-22T02:44:36.655Z,8.67
2019-02-22T02:47:09.622Z,8.57
2019-02-22T02:49:42.618Z,8.83
2019-02-22T02:52:16.321Z,8.23
2019-02-22T02:54:52.626Z,8.53
2019-02-22T02:57:28.238Z,8.23
2019-02-22T03:00:02.455Z,8.07
2019-02-22T03:02:36.044Z,7.60
2019-02-22T03:05:10.257Z,7.67
2019-02-22T03:07:44.888Z,6.80
2019-02-22T03:10:18.637Z,7.77
2019-02-22T03:12:52.634Z,6.57
2019-02-22T03:15:26.090Z,6.50
2019-02-22T03:18:00.631Z,6.43
2019-02-22T03:20:35.132Z,7.17
2019-02-22T03:23:08.625Z,5.87
2019-02-22T03:25:41.626Z,7.20
2019-02-22T03:28:15.631Z,7.63
2019-02-22T03:30:48.638Z,7.13
2019-02-22T03:33:22.315Z,7.00
2019-02-22T03:35:56.136Z,6.47
2019-02-22T03:38:30.332Z,6.87
2019-02-22T03:41:04.632Z,6.80
2019-02-22T03:47:07.259Z,6.17
2019-02-22T03:49:41.639Z,6.63
2019-02-22T03:52:39.229Z,6.53
2019-02-22T03:55:14.263Z,7.07
2019-02-22T03:57:48.273Z,6.93
2019-02-22T04:00:22.075Z,6.53
2019-02-22T04:02:56.641Z,6.83
2019-02-22T04:05:30.094Z,6.67
2019-02-22T04:08:07.132Z,6.53
2019-02-22T04:13:56.650Z,6.87
2019-02-22T04:16:29.656Z,7.33
2019-02-22T04:22:31.664Z,7.37
2019-02-22T04:25:06.259Z,7.27
2019-02-22T04:27:40.063Z,7.33
2019-02-22T04:30:14.282Z,6.47
2019-02-22T04:32:48.290Z,7.30
2019-02-22T04:35:21.659Z,8.27
2019-02-22T04:37:54.665Z,7.57
2019-02-22T04:40:28.269Z,7.00
2019-02-22T04:43:02.277Z,8.03
2019-02-22T04:45:35.660Z,7.70
2019-02-22T04:48:09.276Z,8.10
2019-02-22T04:50:43.285Z,7.30
2019-02-22T04:53:17.292Z,7.00
2019-02-22T04:55:51.663Z,7.63
2019-02-22T04:58:25.663Z,9.67
2019-02-22T05:01:00.141Z,7.80
2019-02-22T05:03:35.668Z,7.87
2019-02-22T05:06:09.673Z,8.07
2019-02-22T05:08:44.218Z,6.97
2019-02-22T05:11:19.252Z,7.90
2019-02-22T05:13:58.179Z,7.53
2019-02-22T05:16:33.748Z,7.17
2019-02-22T05:19:08.766Z,7.20
2019-02-22T05:21:44.521Z,6.73
2019-02-22T05:24:21.716Z,5.67
2019-02-22T05:26:56.225Z,6.77
2019-02-22T05:29:33.307Z,8.10
2019-02-22T05:32:09.555Z,8.27
2019-02-22T05:34:43.357Z,8.93
2019-02-22T05:37:17.983Z,10.50
2019-02-22T05:39:52.404Z,10.60
2019-02-22T05:42:28.541Z,9.67
2019-02-22T05:45:01.735Z,11.17
2019-02-22T05:47:35.459Z,10.20
2019-02-22T05:50:09.737Z,10.33
2019-02-22T05:52:43.735Z,9.47
2019-02-22T05:55:17.486Z,9.57
2019-02-22T05:57:51.491Z,9.73
2019-02-22T06:00:25.744Z,10.17
2019-02-22T06:02:59.743Z,9.60
2019-02-22T06:05:32.779Z,9.80
2019-02-22T06:11:48.408Z,8.37
2019-02-22T06:14:22.778Z,8.70
2019-02-22T06:16:56.332Z,8.90
2019-02-22T06:23:13.359Z,8.37
2019-02-22T06:29:30.407Z,8.23
2019-02-22T06:32:04.857Z,8.40
2019-02-22T06:34:40.259Z,9.43
2019-02-22T06:37:14.679Z,8.87
2019-02-22T06:43:21.475Z,8.13
2019-02-22T06:45:56.958Z,8.40
2019-02-22T06:48:31.982Z,8.93
2019-02-22T06:51:07.837Z,8.40
2019-02-22T06:53:41.609Z,7.87
2019-02-22T06:56:17.183Z,9.23
2019-02-22T06:58:51.676Z,8.17
2019-02-22T07:01:27.180Z,8.77
2019-02-22T07:04:01.746Z,9.40
2019-02-22T07:06:35.966Z,8.57
2019-02-22T07:09:10.784Z,8.90
2019-02-22T07:11:58.179Z,8.77
2019-02-22T07:14:33.184Z,11.53
2019-02-22T07:17:10.019Z,10.93
2019-02-22T07:19:46.691Z,10.20
2019-02-22T07:25:45.186Z,9.43
2019-02-22T07:28:18.690Z,10.67
2019-02-22T07:34:09.718Z,9.80
2019-02-22T07:36:45.983Z,10.80
2019-02-22T07:39:27.868Z,10.00
2019-02-22T07:42:02.180Z,9.70
2019-02-22T07:44:41.138Z,9.30
2019-02-22T07:47:16.968Z,9.60
2019-02-22T07:49:51.795Z,9.20
2019-02-22T07:52:25.808Z,10.30
2019-02-22T07:55:01.873Z,9.23
2019-02-22T07:57:35.667Z,9.67
2019-02-22T08:00:11.725Z,10.03
2019-02-22T08:02:47.043Z,9.50
2019-02-22T08:08:39.424Z,9.27
2019-02-22T08:11:14.056Z,9.37
2019-02-22T08:17:30.676Z,9.90
2019-02-22T08:23:48.122Z,9.10
2019-02-22T08:30:05.776Z,9.37
2019-02-22T08:32:42.213Z,9.63
2019-02-22T08:35:18.212Z,10.00
2019-02-22T08:37:52.716Z,9.53
2019-02-22T08:40:27.218Z,9.77
2019-02-22T08:43:03.231Z,10.47
2019-02-22T08:45:41.715Z,9.17
2019-02-22T08:48:17.225Z,10.50
2019-02-22T08:50:53.269Z,9.57
2019-02-22T08:56:56.992Z,9.50
2019-02-22T09:03:02.093Z,10.87
2019-02-22T09:09:08.688Z,10.57
2019-02-22T09:11:43.720Z,10.17
2019-02-22T09:14:19.298Z,10.20
2019-02-22T09:16:54.226Z,10.33
2019-02-22T09:19:29.441Z,9.80
2019-02-22T09:22:06.218Z,9.97
2019-02-22T09:24:42.224Z,10.63
2019-02-22T09:30:48.223Z,9.37
2019-02-22T09:36:27.227Z,9.37
2019-02-22T09:39:02.734Z,9.10
2019-02-22T09:41:38.994Z,10.13
2019-02-22T09:47:42.517Z,9.40
2019-02-22T09:53:36.260Z,9.53
2019-02-22T09:56:12.056Z,9.57
2019-02-22T09:58:47.096Z,9.47
2019-02-22T10:01:24.238Z,9.70
2019-02-22T10:04:04.745Z,9.93
2019-02-22T10:10:11.773Z,10.03
2019-02-22T10:12:47.243Z,9.70
2019-02-22T10:15:23.851Z,10.80
2019-02-22T10:17:58.679Z,8.93
2019-02-22T10:20:34.736Z,9.83
2019-02-22T10:23:03.630Z,10.23
2019-02-22T10:25:37.258Z,9.60
2019-02-22T10:28:17.774Z,9.07
2019-02-22T10:30:48.252Z,9.00
2019-02-22T10:36:45.100Z,9.93
2019-02-22T10:39:16.274Z,9.37
2019-02-22T10:41:51.873Z,10.00
2019-02-22T10:44:26.492Z,11.60
2019-02-22T10:47:02.765Z,9.77
2019-02-22T10:53:10.985Z,10.30
2019-02-22T10:59:14.710Z,9.13
2019-02-22T11:05:18.873Z,10.27
2019-02-22T11:07:57.563Z,10.00
2019-02-22T11:10:32.812Z,9.00
2019-02-22T11:13:07.281Z,10.87
2019-02-22T11:15:42.052Z,9.90
2019-02-22T11:21:45.288Z,9.47
2019-02-22T11:24:20.011Z,9.47
2019-02-22T11:26:53.298Z,10.03
2019-02-22T11:29:27.319Z,10.27
2019-02-22T11:32:01.296Z,10.30
2019-02-22T11:34:35.292Z,11.10
2019-02-22T11:37:08.295Z,10.20
2019-02-22T11:39:41.295Z,10.17
2019-02-22T11:42:15.808Z,10.43
2019-02-22T11:44:49.304Z,10.77
2019-02-22T11:47:22.799Z,10.60
2019-02-22T11:49:56.298Z,10.47
2019-02-22T11:52:30.314Z,10.37
2019-02-22T11:55:04.310Z,10.13
2019-02-22T11:57:37.423Z,11.47
2019-02-22T12:00:15.920Z,10.83
2019-02-22T12:02:49.928Z,11.33
2019-02-22T12:05:23.936Z,11.10
2019-02-22T12:11:27.319Z,10.47
2019-02-22T12:14:01.877Z,11.83
2019-02-22T12:16:35.323Z,11.03
2019-02-22T12:22:50.328Z,9.77
2019-02-22T12:25:25.915Z,10.17
2019-02-22T12:28:00.947Z,10.27
2019-02-22T12:30:37.829Z,10.80
2019-02-22T12:33:14.102Z,10.63
2019-02-22T12:39:29.892Z,10.93
2019-02-22T12:42:03.356Z,11.40
2019-02-22T12:44:37.329Z,11.83
2019-02-22T12:50:52.332Z,10.13
2019-02-22T12:53:25.884Z,10.83
2019-02-22T12:56:00.334Z,10.97
2019-02-22T12:58:34.341Z,11.33
2019-02-22T13:01:09.753Z,11.40
2019-02-22T13:03:43.338Z,10.30
2019-02-22T13:06:18.799Z,11.70
2019-02-22T13:08:52.808Z,11.43
2019-02-22T13:11:27.838Z,10.77
2019-02-22T13:14:03.078Z,11.47
2019-02-22T13:16:36.354Z,11.33
2019-02-22T13:19:10.362Z,10.93
2019-02-22T13:21:44.354Z,12.57
2019-02-22T13:24:17.428Z,10.13
2019-02-22T13:26:51.281Z,11.10
2019-02-22T13:29:24.354Z,10.93
2019-02-22T13:31:58.357Z,12.17
2019-02-22T13:34:31.360Z,12.27
2019-02-22T13:37:05.359Z,11.70
2019-02-22T13:39:41.126Z,13.63
2019-02-22T13:42:15.370Z,12.87
2019-02-22T13:44:50.785Z,13.23
2019-02-22T13:47:27.367Z,12.00
2019-02-22T13:50:01.932Z,13.03
2019-02-22T13:52:36.364Z,11.87
2019-02-22T13:55:10.369Z,10.13
2019-02-22T13:57:46.156Z,12.13
2019-02-22T14:00:22.468Z,12.37
2019-02-22T14:02:57.365Z,12.07
2019-02-22T14:05:33.721Z,11.77
2019-02-22T14:08:09.395Z,12.73
2019-02-22T14:10:45.834Z,13.33
2019-02-22T14:13:21.413Z,12.33
2019-02-22T14:15:57.371Z,11.60
2019-02-22T14:18:31.374Z,11.77
2019-02-22T14:21:05.383Z,12.20
2019-02-22T14:23:39.973Z,12.47
2019-02-22T14:26:16.031Z,12.43
2019-02-22T14:28:50.869Z,12.87
2019-02-22T14:31:26.371Z,12.97
2019-02-22T14:34:00.370Z,12.57
2019-02-22T14:36:34.495Z,11.00
2019-02-22T14:39:09.387Z,12.30
2019-02-22T14:41:45.002Z,12.10
2019-02-22T14:48:29.695Z,11.60
2019-02-22T14:51:06.981Z,11.87
2019-02-22T14:56:50.232Z,11.23
2019-02-22T15:02:54.384Z,11.30
2019-02-22T15:08:59.389Z,11.70
2019-02-22T15:11:34.389Z,11.80
2019-02-22T15:14:09.400Z,11.47
2019-02-22T15:17:02.023Z,12.10
2019-02-22T15:19:38.394Z,12.67
2019-02-22T15:22:14.341Z,12.37
2019-02-22T15:24:48.394Z,12.97
2019-02-22T15:30:52.354Z,13.27
2019-02-22T15:36:46.412Z,12.23
2019-02-22T15:39:20.447Z,12.47
2019-02-22T15:41:55.008Z,12.50
2019-02-22T15:44:29.028Z,12.57
2019-02-22T15:47:11.328Z,11.70
2019-02-22T15:49:39.291Z,12.53
2019-02-22T15:52:13.914Z,13.10
2019-02-22T15:54:48.412Z,13.17
2019-02-22T15:57:25.186Z,13.27
2019-02-22T15:59:59.837Z,13.20
2019-02-22T16:02:35.865Z,12.40
2019-02-22T16:05:13.999Z,11.97
2019-02-22T16:07:50.261Z,11.47
2019-02-22T16:10:27.434Z,12.80
2019-02-22T16:13:02.429Z,12.60
2019-02-22T16:15:36.451Z,12.67
2019-02-22T16:18:14.905Z,12.90
2019-02-22T16:20:52.429Z,12.97
2019-02-22T16:23:26.431Z,13.50
2019-02-22T16:26:00.001Z,11.97
2019-02-22T16:28:34.452Z,12.73
2019-02-22T16:31:08.839Z,12.57
2019-02-22T16:33:42.850Z,13.53
2019-02-22T16:36:18.431Z,13.97
2019-02-22T16:38:52.437Z,12.43
2019-02-22T16:45:11.444Z,14.23
2019-02-22T16:47:46.452Z,15.80
2019-02-22T16:50:21.046Z,14.43
2019-02-22T16:52:57.444Z,16.00
2019-02-22T16:55:32.142Z,15.77
2019-02-22T16:58:06.963Z,13.27
2019-02-22T17:00:41.443Z,13.13
2019-02-22T17:03:15.443Z,12.23
2019-02-22T17:05:50.456Z,12.80
2019-02-22T17:08:25.663Z,12.90
2019-02-22T17:11:03.449Z,14.50
2019-02-22T17:13:39.424Z,13.87
2019-02-22T17:16:16.922Z,14.40
2019-02-22T17:18:51.450Z,13.27
2019-02-22T17:21:27.464Z,13.50
2019-02-22T17:24:02.008Z,10.17
2019-02-22T17:26:36.457Z,12.17
2019-02-22T17:35:32.454Z,10.97
2019-02-22T17:38:06.454Z,11.23
2019-02-22T17:40:40.454Z,10.50
2019-02-22T17:43:16.055Z,10.03
2019-02-22T17:45:51.293Z,10.63
2019-02-22T17:48:24.893Z,10.00
2019-02-22T17:50:59.113Z,10.00
2019-02-22T17:53:32.919Z,9.60
2019-02-22T17:56:07.947Z,9.70
2019-02-22T17:58:42.458Z,10.60
2019-02-22T18:01:15.467Z,9.37
2019-02-22T18:03:49.464Z,8.80
2019-02-22T18:06:24.458Z,10.27
2019-02-22T18:08:57.469Z,9.37
2019-02-22T18:14:35.468Z,10.43
2019-02-22T18:20:50.903Z,10.90
2019-02-22T18:23:25.117Z,10.10
2019-02-22T18:25:59.469Z,10.77
2019-02-22T18:28:33.956Z,10.80
2019-02-22T18:31:08.992Z,10.73
2019-02-22T18:37:11.483Z,11.00
2019-02-22T18:39:45.482Z,11.20
2019-02-22T18:45:37.341Z,12.10
2019-02-22T18:48:11.481Z,11.20
2019-02-22T18:54:14.492Z,11.57
2019-02-22T19:00:16.488Z,11.20
2019-02-22T19:02:50.147Z,11.27
2019-02-22T19:05:23.951Z,11.60
2019-02-22T19:11:26.038Z,10.70
2019-02-22T19:14:00.045Z,12.10
2019-02-22T19:20:16.505Z,11.47
2019-02-22T19:26:19.495Z,11.50
2019-02-22T19:28:52.976Z,13.33
2019-02-22T19:31:27.502Z,11.47
2019-02-22T19:34:00.502Z,11.50
2019-02-22T19:36:34.496Z,12.03
2019-02-22T19:39:12.096Z,12.13
2019-02-22T19:41:47.507Z,13.27
2019-02-22T19:44:23.502Z,11.97
2019-02-22T19:46:57.509Z,13.33
2019-02-22T19:49:30.783Z,13.60
2019-02-22T19:52:04.503Z,12.40
2019-02-22T19:54:39.214Z,12.27
2019-02-22T19:57:12.500Z,12.83
2019-02-22T19:59:46.005Z,13.23
2019-02-22T20:02:19.508Z,14.43
2019-02-22T20:04:53.522Z,14.80
2019-02-22T20:07:28.501Z,12.10
2019-02-22T20:10:03.065Z,13.43
2019-02-22T20:16:22.504Z,14.40
2019-02-22T20:22:38.369Z,15.67
2019-02-22T20:25:12.379Z,15.47
2019-02-22T20:27:46.187Z,16.03
2019-02-22T20:30:23.263Z,14.97
2019-02-22T20:32:57.512Z,16.73
2019-02-22T20:38:59.977Z,18.53
2019-02-22T20:41:33.985Z,20.83
2019-02-22T20:47:49.521Z,16.43
2019-02-22T20:53:51.518Z,15.57
2019-02-22T20:56:25.523Z,15.00
2019-02-22T21:02:41.538Z,13.20
2019-02-22T21:08:46.040Z,12.70
2019-02-22T21:14:48.734Z,12.87
2019-02-22T21:17:22.951Z,11.37
2019-02-22T21:23:39.989Z,12.37
2019-02-22T21:26:15.029Z,13.07
2019-02-22T21:32:18.954Z,12.60
2019-02-22T21:37:57.534Z,12.33
2019-02-22T21:40:31.539Z,13.23
2019-02-22T21:43:05.539Z,13.97
2019-02-22T21:49:22.537Z,13.87
2019-02-22T21:55:41.011Z,14.00
2019-02-22T21:58:19.117Z,14.90
2019-02-22T22:00:57.028Z,14.60
2019-02-22T22:03:33.559Z,13.97
2019-02-22T22:09:48.542Z,14.50
2019-02-22T22:12:22.543Z,13.93
2019-02-22T22:18:24.771Z,14.87
2019-02-22T22:24:27.552Z,14.20
2019-02-22T22:27:01.549Z,15.00
2019-02-22T22:29:35.546Z,14.53
2019-02-22T22:32:10.525Z,13.20
2019-02-22T22:34:46.585Z,15.73
2019-02-22T22:37:22.027Z,17.03
2019-02-22T22:39:56.549Z,16.47
2019-02-22T22:42:31.070Z,17.33
2019-02-22T22:45:07.591Z,16.83
2019-02-22T22:47:43.549Z,16.27
2019-02-22T22:50:18.554Z,17.80
2019-02-22T22:52:52.551Z,17.87
2019-02-22T22:55:25.553Z,18.43
2019-02-22T22:58:04.341Z,19.40
2019-02-22T23:00:58.553Z,19.23
2019-02-22T23:03:32.024Z,18.87
2019-02-22T23:06:06.031Z,19.27
2019-02-22T23:08:40.556Z,18.60
2019-02-22T23:11:14.556Z,19.80
2019-02-22T23:13:48.879Z,20.80
2019-02-22T23:16:25.142Z,21.40
2019-02-22T23:19:01.945Z,20.03
2019-02-22T23:21:35.003Z,19.93
2019-02-22T23:24:09.422Z,19.83
2019-02-22T23:26:43.562Z,19.13
2019-02-22T23:29:17.555Z,19.23
2019-02-22T23:31:51.557Z,20.97
2019-02-22T23:34:26.557Z,20.97
2019-02-22T23:37:01.314Z,22.30
2019-02-22T23:39:35.127Z,22.53
2019-02-22T23:42:08.555Z,21.90
2019-02-22T23:44:44.163Z,21.33
2019-02-22T23:47:19.400Z,21.03
2019-02-22T23:49:54.555Z,22.87
2019-02-22T23:52:29.057Z,22.53
2019-02-22T23:55:04.095Z,20.87
2019-02-22T23:57:39.566Z,21.33
